Time;durP1;ratioP1;P1;durP2;ratioP2;P2;SDS_P1;SDS_P2;PMS_P1;PMS_P2;Temp;Humidity;BMP_temperature;BMP_pressure;BME280_temperature;BME280_humidity;BME280_pressure;Samples;Min_cycle;Max_cycle;Signal;HPM_P1;HPM_P2
2021/09/07 00:01:30;;;;;;;;;45.67;40.33;22.30;46.90;;;;;;5097775;28;8764;-69
2021/09/07 00:03:56;;;;;;;;;48.33;42.33;22.30;47.20;;;;;;5097492;28;8752;-68
2021/09/07 00:06:22;;;;;;;;;50.75;43.75;22.30;47.00;;;;;;5097477;28;8803;-70
2021/09/07 00:08:47;;;;;;;;;54.50;46.25;22.30;46.90;;;;;;5097446;28;8760;-68
2021/09/07 00:11:16;;;;;;;;;46.67;40.33;22.10;47.10;;;;;;5097351;28;8795;-69
2021/09/07 00:13:43;;;;;;;;;36.33;35.33;22.10;47.40;;;;;;5097508;28;8889;-67
2021/09/07 00:16:10;;;;;;;;;31.67;31.67;22.10;47.20;;;;;;5079903;28;8864;-69
2021/09/07 00:18:35;;;;;;;;;34.67;33.67;22.20;47.10;;;;;;5097266;28;8744;-68
2021/09/07 00:21:01;;;;;;;;;35.67;34.67;22.20;47.10;;;;;;5097112;28;9432;-70
2021/09/07 00:23:27;;;;;;;;;35.67;33.67;22.20;47.10;;;;;;5097290;28;8768;-69
2021/09/07 00:25:53;;;;;;;;;35.33;33.67;22.20;47.50;;;;;;5097311;28;9464;-69
2021/09/07 00:28:18;;;;;;;;;33.67;32.67;22.30;47.50;;;;;;5097080;28;8752;-69
2021/09/07 00:30:44;;;;;;;;;34.33;33.33;22.20;47.40;;;;;;5096968;28;8779;-68
2021/09/07 00:33:10;;;;;;;;;35.67;33.33;22.30;47.50;;;;;;5097014;28;8928;-69
2021/09/07 00:35:37;;;;;;;;;39.67;36.67;22.20;47.60;;;;;;5096790;28;8918;-70
2021/09/07 00:38:03;;;;;;;;;40.00;35.67;22.10;47.70;;;;;;5097168;28;8787;-70
2021/09/07 00:40:29;;;;;;;;;44.67;39.33;22.10;47.70;;;;;;5097071;28;8873;-69
2021/09/07 00:42:55;;;;;;;;;37.67;34.67;22.00;47.60;;;;;;5096865;28;8760;-69
2021/09/07 00:45:21;;;;;;;;;38.33;35.67;22.00;47.90;;;;;;5096891;28;8764;-68
2021/09/07 00:47:46;;;;;;;;;39.00;35.67;22.00;48.10;;;;;;5096695;28;8895;-68
2021/09/07 00:50:13;;;;;;;;;37.00;34.67;22.00;47.60;;;;;;5096815;28;8771;-69
2021/09/07 00:52:41;;;;;;;;;37.00;34.00;22.00;47.40;;;;;;5096488;28;8792;-69
2021/09/07 00:55:08;;;;;;;;;33.33;33.33;22.00;48.10;;;;;;5096368;28;9465;-69
2021/09/07 00:57:35;;;;;;;;;41.00;36.67;22.00;48.10;;;;;;5096603;28;8768;-68
2021/09/07 01:00:04;;;;;;;;;42.00;38.33;21.90;48.30;;;;;;5096691;28;8748;-68
2021/09/07 01:02:30;;;;;;;;;38.00;35.67;21.80;48.20;;;;;;5096621;28;8875;-68
2021/09/07 01:04:56;;;;;;;;;31.00;31.00;21.90;48.10;;;;;;5096280;28;8895;-70
2021/09/07 01:07:22;;;;;;;;;30.33;30.33;21.90;48.00;;;;;;5096217;28;8807;-68
2021/09/07 01:09:48;;;;;;;;;36.00;34.00;21.80;48.10;;;;;;5096260;28;8845;-69
2021/09/07 01:12:14;;;;;;;;;33.00;32.67;21.90;48.20;;;;;;5096466;28;8768;-69
2021/09/07 01:14:41;;;;;;;;;37.33;34.67;21.80;48.30;;;;;;5095919;28;8800;-69
2021/09/07 01:17:18;;;;;;;;;35.67;33.67;21.80;48.30;;;;;;5078201;28;8780;-68
2021/09/07 01:19:49;;;;;;;;;41.33;38.00;21.90;48.10;;;;;;5095994;28;8764;-69
2021/09/07 01:22:16;;;;;;;;;37.00;35.00;21.90;48.00;;;;;;5096036;28;8866;-71
2021/09/07 01:24:41;;;;;;;;;44.00;40.00;21.90;48.00;;;;;;5095908;28;8783;-68
2021/09/07 01:27:08;;;;;;;;;40.67;37.33;21.90;48.00;;;;;;5095985;28;8752;-68
2021/09/07 01:29:35;;;;;;;;;35.67;33.33;21.90;48.00;;;;;;5096128;28;8776;-68
2021/09/07 01:32:03;;;;;;;;;24.00;24.00;21.90;48.10;;;;;;5095820;28;8748;-68
2021/09/07 01:34:29;;;;;;;;;37.67;35.33;21.90;48.00;;;;;;5095743;28;8767;-67
2021/09/07 01:36:56;;;;;;;;;35.67;33.67;21.90;47.50;;;;;;5095617;28;8811;-69
2021/09/07 01:39:22;;;;;;;;;34.33;32.00;21.90;47.40;;;;;;5095691;28;8841;-69
2021/09/07 01:41:48;;;;;;;;;33.33;32.33;21.90;47.30;;;;;;5095606;28;9428;-68
2021/09/07 01:44:16;;;;;;;;;34.33;34.00;21.80;47.40;;;;;;5095546;28;9796;-68
2021/09/07 01:46:41;;;;;;;;;41.67;36.33;21.80;47.60;;;;;;5095499;28;8751;-68
2021/09/07 01:49:09;;;;;;;;;35.67;34.33;21.60;48.00;;;;;;5095415;28;8771;-68
2021/09/07 01:51:39;;;;;;;;;36.67;34.33;21.70;48.30;;;;;;5095458;28;8786;-68
2021/09/07 01:54:06;;;;;;;;;40.00;35.67;21.60;48.50;;;;;;5095338;28;8763;-67
2021/09/07 01:56:32;;;;;;;;;36.67;34.33;21.60;48.50;;;;;;5095038;28;8874;-68
2021/09/07 01:58:58;;;;;;;;;37.67;34.67;21.60;48.50;;;;;;5095248;28;9382;-69
2021/09/07 02:01:24;;;;;;;;;34.00;33.00;21.50;48.30;;;;;;5095477;28;8829;-68
2021/09/07 02:03:50;;;;;;;;;34.33;32.00;21.50;47.80;;;;;;5095440;28;8755;-69
2021/09/07 02:06:15;;;;;;;;;33.33;32.33;21.60;47.80;;;;;;5094685;28;9425;-68
2021/09/07 02:08:41;;;;;;;;;30.67;30.67;21.50;47.90;;;;;;5095097;28;8802;-69
2021/09/07 02:11:07;;;;;;;;;31.33;29.67;21.50;47.80;;;;;;5094197;28;8860;-70
2021/09/07 02:13:33;;;;;;;;;35.33;34.00;21.50;48.00;;;;;;5095260;28;8759;-68
2021/09/07 02:15:59;;;;;;;;;36.33;34.67;21.40;48.20;;;;;;5094279;28;8850;-68
2021/09/07 02:18:24;;;;;;;;;32.00;32.00;21.40;48.20;;;;;;5095212;28;8771;-69
2021/09/07 02:20:50;;;;;;;;;40.67;36.67;21.50;48.00;;;;;;5094897;28;8766;-68
2021/09/07 02:23:16;;;;;;;;;40.33;35.67;21.40;47.90;;;;;;5095061;28;8759;-68
2021/09/07 02:25:42;;;;;;;;;36.00;34.33;21.40;48.10;;;;;;5095227;28;9489;-69
2021/09/07 02:28:08;;;;;;;;;35.00;32.67;21.30;48.30;;;;;;5094810;28;8820;-68
2021/09/07 02:30:34;;;;;;;;;38.67;34.33;21.30;48.50;;;;;;5095017;28;8767;-68
2021/09/07 02:33:00;;;;;;;;;33.67;33.33;21.30;48.50;;;;;;5094799;28;8786;-69
2021/09/07 02:35:28;;;;;;;;;34.67;33.67;21.30;48.40;;;;;;5094574;28;8874;-68
2021/09/07 02:37:54;;;;;;;;;44.33;40.00;21.30;48.40;;;;;;5094686;28;8778;-70
2021/09/07 02:40:20;;;;;;;;;48.67;42.00;21.20;48.60;;;;;;5094655;28;8809;-68
2021/09/07 02:42:46;;;;;;;;;46.00;40.00;21.10;48.70;;;;;;5094778;28;8949;-69
2021/09/07 02:45:12;;;;;;;;;46.33;40.33;21.00;48.80;;;;;;5094521;28;8787;-69
2021/09/07 02:47:40;;;;;;;;;43.67;38.67;21.10;48.80;;;;;;5094478;28;8775;-68
2021/09/07 02:50:11;;;;;;;;;45.00;39.00;21.00;48.80;;;;;;5094412;28;8783;-68
2021/09/07 02:52:37;;;;;;;;;44.33;38.33;21.00;49.00;;;;;;5094738;28;8785;-69
2021/09/07 02:55:04;;;;;;;;;37.33;34.33;20.90;49.10;;;;;;5094032;28;8834;-68
2021/09/07 02:57:31;;;;;;;;;38.67;35.67;20.70;49.50;;;;;;5094343;28;8901;-68
2021/09/07 02:59:56;;;;;;;;;36.00;33.00;20.60;49.80;;;;;;5094382;28;8766;-68
2021/09/07 03:02:26;;;;;;;;;32.67;31.67;20.60;50.10;;;;;;5094613;28;8787;-68
2021/09/07 03:04:52;;;;;;;;;40.67;37.00;20.50;50.40;;;;;;5077248;28;9495;-69
2021/09/07 03:07:19;;;;;;;;;33.67;32.67;20.60;50.30;;;;;;5094572;28;9468;-67
2021/09/07 03:09:45;;;;;;;;;36.00;33.33;20.70;50.40;;;;;;5094222;28;8812;-67
2021/09/07 03:12:11;;;;;;;;;29.67;29.33;20.70;50.50;;;;;;5094570;28;8862;-68
2021/09/07 03:14:37;;;;;;;;;36.33;33.00;20.60;50.60;;;;;;5094266;28;8878;-68
2021/09/07 03:17:03;;;;;;;;;31.00;30.00;20.70;51.70;;;;;;5095570;28;8818;-70
2021/09/07 03:19:29;;;;;;;;;41.00;37.00;20.60;50.70;;;;;;5098378;28;8890;-68
2021/09/07 03:21:55;;;;;;;;;38.33;33.67;20.60;50.70;;;;;;5098345;28;8805;-68
2021/09/07 03:24:20;;;;;;;;;38.33;34.67;20.70;50.70;;;;;;5080116;28;8828;-69
2021/09/07 03:26:46;;;;;;;;;41.33;36.67;20.70;50.60;;;;;;5098203;28;8775;-68
2021/09/07 03:29:12;;;;;;;;;43.00;36.00;20.70;50.60;;;;;;5080276;28;8795;-68
2021/09/07 03:31:38;;;;;;;;;42.33;37.33;20.70;50.70;;;;;;5098132;28;8832;-70
2021/09/07 03:34:04;;;;;;;;;42.00;36.67;20.50;51.00;;;;;;5098126;28;8755;-68
2021/09/07 03:36:30;;;;;;;;;41.33;36.00;20.60;51.10;;;;;;5097908;28;8802;-68
2021/09/07 03:38:56;;;;;;;;;36.33;33.67;20.70;50.90;;;;;;5093103;28;8770;-68
2021/09/07 03:41:22;;;;;;;;;43.33;39.33;20.80;50.70;;;;;;5091269;28;8873;-69
2021/09/07 03:43:48;;;;;;;;;44.67;39.33;20.70;50.80;;;;;;5098140;28;8768;-68
2021/09/07 03:46:14;;;;;;;;;49.75;41.75;20.70;50.90;;;;;;5098107;28;8784;-68
2021/09/07 03:48:40;;;;;;;;;60.25;50.50;20.50;50.90;;;;;;5078298;28;8786;-68
2021/09/07 03:51:06;;;;;;;;;60.25;49.75;20.30;51.30;;;;;;5077714;28;8750;-67
2021/09/07 03:53:32;;;;;;;;;65.50;53.75;20.20;51.70;;;;;;5077454;28;8842;-68
2021/09/07 03:55:58;;;;;;;;;64.00;52.25;20.10;51.60;;;;;;5077058;28;8849;-68
2021/09/07 03:58:24;;;;;;;;;69.75;56.00;20.20;51.70;;;;;;5094808;28;8811;-69
2021/09/07 04:00:50;;;;;;;;;65.75;54.25;20.30;51.30;;;;;;5097503;28;8763;-70
2021/09/07 04:03:18;;;;;;;;;72.75;64.50;20.30;51.20;;;;;;5097339;28;8786;-68
2021/09/07 04:05:44;;;;;;;;;81.25;78.75;20.30;51.10;;;;;;5097185;28;9463;-68
2021/09/07 04:08:11;;;;;;;;;90.75;89.25;20.20;51.20;;;;;;5097436;28;8796;-69
2021/09/07 04:10:37;;;;;;;;;90.75;90.25;20.10;51.30;;;;;;5097272;28;8772;-69
2021/09/07 04:13:03;;;;;;;;;89.00;87.75;20.10;51.30;;;;;;5097537;28;8810;-67
2021/09/07 04:15:29;;;;;;;;;93.50;87.25;20.20;51.30;;;;;;5097098;28;8807;-68
2021/09/07 04:17:55;;;;;;;;;87.75;83.25;20.00;51.40;;;;;;5097114;28;8775;-68
2021/09/07 04:20:21;;;;;;;;;91.00;90.50;20.10;51.60;;;;;;5097051;28;8780;-66
2021/09/07 04:22:47;;;;;;;;;96.25;92.25;20.10;51.30;;;;;;5097161;28;8764;-67
2021/09/07 04:25:13;;;;;;;;;100.75;98.00;20.10;51.10;;;;;;5080442;28;8906;-67
2021/09/07 04:27:39;;;;;;;;;99.75;96.75;20.10;50.90;;;;;;5076410;28;8781;-69
2021/09/07 04:30:09;;;;;;;;;97.50;95.75;20.20;50.80;;;;;;5076689;28;8884;-66
2021/09/07 04:32:35;;;;;;;;;101.00;98.00;20.20;50.80;;;;;;5077078;28;8781;-69
2021/09/07 04:35:02;;;;;;;;;89.00;84.50;20.20;51.00;;;;;;5058931;28;8770;-70
2021/09/07 04:37:28;;;;;;;;;71.75;63.75;20.20;51.10;;;;;;5076607;28;8796;-71
2021/09/07 04:39:54;;;;;;;;;62.25;51.00;20.30;51.70;;;;;;5082153;28;8885;-69
2021/09/07 04:42:20;;;;;;;;;58.75;49.50;20.20;51.70;;;;;;5087971;28;8803;-71
2021/09/07 04:44:47;;;;;;;;;47.33;40.00;20.20;52.10;;;;;;5090199;28;8772;-67
2021/09/07 04:47:13;;;;;;;;;43.00;37.33;20.20;51.80;;;;;;5081730;28;9549;-71
2021/09/07 04:49:39;;;;;;;;;41.33;35.67;20.20;51.50;;;;;;5076225;28;8769;-71
2021/09/07 04:52:06;;;;;;;;;34.33;32.33;20.30;51.00;;;;;;5068049;28;8814;-71
2021/09/07 04:54:32;;;;;;;;;43.00;38.33;20.30;50.60;;;;;;5096038;28;8787;-71
2021/09/07 04:56:58;;;;;;;;;46.50;39.75;20.30;50.70;;;;;;5088077;28;8836;-71
2021/09/07 04:59:24;;;;;;;;;42.25;37.25;20.10;51.00;;;;;;5078466;28;8798;-73
2021/09/07 05:01:50;;;;;;;;;51.00;44.00;20.00;51.30;;;;;;5091271;28;8817;-68
2021/09/07 05:04:16;;;;;;;;;51.75;44.50;19.80;51.50;;;;;;5085144;28;8808;-67
2021/09/07 05:06:42;;;;;;;;;51.75;44.00;19.90;51.60;;;;;;5076347;28;8833;-67
2021/09/07 05:09:07;;;;;;;;;52.25;43.25;20.10;51.20;;;;;;5076119;28;8793;-67
2021/09/07 05:11:33;;;;;;;;;49.00;42.00;20.10;50.90;;;;;;5085197;28;8779;-67
2021/09/07 05:13:59;;;;;;;;;51.75;44.50;20.20;50.70;;;;;;5096121;28;8798;-66
2021/09/07 05:16:25;;;;;;;;;50.00;43.00;20.20;51.50;;;;;;5096104;28;8807;-66
2021/09/07 05:18:51;;;;;;;;;48.75;42.00;20.30;50.40;;;;;;5096122;28;8755;-66
2021/09/07 05:21:17;;;;;;;;;54.25;45.75;20.30;50.40;;;;;;5095201;28;8901;-67
2021/09/07 05:23:43;;;;;;;;;45.00;39.75;20.30;50.20;;;;;;5096032;28;9441;-67
2021/09/07 05:26:09;;;;;;;;;46.75;40.00;20.30;50.20;;;;;;5096264;28;8803;-68
2021/09/07 05:28:35;;;;;;;;;46.25;40.25;20.30;50.20;;;;;;5095860;28;9405;-67
2021/09/07 05:31:01;;;;;;;;;46.25;40.25;20.30;50.30;;;;;;5095796;28;8779;-67
2021/09/07 05:33:27;;;;;;;;;49.00;43.00;20.40;50.00;;;;;;5095697;28;8841;-67
2021/09/07 05:35:54;;;;;;;;;46.00;39.00;20.50;50.20;;;;;;5095498;28;8814;-66
2021/09/07 05:38:20;;;;;;;;;37.67;34.67;20.60;50.30;;;;;;5095651;28;8794;-67
2021/09/07 05:40:46;;;;;;;;;43.00;36.33;20.60;50.30;;;;;;5094562;28;8794;-68
2021/09/07 05:43:13;;;;;;;;;38.67;35.33;20.60;50.20;;;;;;5094948;28;8806;-67
2021/09/07 05:45:39;;;;;;;;;36.00;34.33;20.50;50.10;;;;;;5091428;28;8822;-68
2021/09/07 05:48:05;;;;;;;;;36.67;34.33;20.50;50.20;;;;;;5084279;28;8773;-69
2021/09/07 05:50:31;;;;;;;;;36.00;34.00;20.50;50.00;;;;;;5075303;28;8788;-68
2021/09/07 05:52:56;;;;;;;;;41.33;38.33;20.60;49.80;;;;;;5075603;28;8762;-69
2021/09/07 05:55:22;;;;;;;;;36.33;35.00;20.60;49.70;;;;;;5074856;28;8838;-68
2021/09/07 05:57:52;;;;;;;;;40.00;37.00;20.80;49.70;;;;;;5085575;28;8775;-69
2021/09/07 06:00:18;;;;;;;;;39.33;35.67;20.90;49.20;;;;;;5095242;28;8764;-69
2021/09/07 06:02:44;;;;;;;;;45.67;39.00;20.90;49.20;;;;;;5095728;28;8771;-68
2021/09/07 06:05:10;;;;;;;;;46.00;39.67;20.90;49.20;;;;;;5095524;28;8791;-70
2021/09/07 06:07:36;;;;;;;;;43.33;38.33;20.90;49.10;;;;;;5094752;28;8771;-70
2021/09/07 06:10:03;;;;;;;;;45.00;39.00;21.00;49.00;;;;;;5095622;28;8901;-70
2021/09/07 06:12:28;;;;;;;;;47.00;39.33;21.10;49.10;;;;;;5088954;28;8863;-70
2021/09/07 06:14:54;;;;;;;;;48.33;41.00;21.20;48.80;;;;;;5095085;28;8759;-69
2021/09/07 06:17:20;;;;;;;;;47.67;41.00;21.20;48.90;;;;;;5094343;28;8766;-70
2021/09/07 06:19:46;;;;;;;;;45.33;39.33;21.20;48.70;;;;;;5094954;28;8805;-69
2021/09/07 06:22:12;;;;;;;;;40.00;35.00;21.10;48.90;;;;;;5077065;28;8763;-69
2021/09/07 06:24:37;;;;;;;;;42.00;37.00;21.20;48.90;;;;;;5094537;28;8787;-69
2021/09/07 06:27:03;;;;;;;;;44.00;37.00;21.30;48.70;;;;;;5094647;28;8771;-69
2021/09/07 06:29:29;;;;;;;;;41.67;37.33;21.40;48.70;;;;;;5094754;28;8759;-69
2021/09/07 06:31:55;;;;;;;;;37.67;35.67;21.50;48.40;;;;;;5094849;28;8786;-69
2021/09/07 06:34:25;;;;;;;;;36.33;34.33;21.60;48.30;;;;;;5094481;28;8889;-69
2021/09/07 06:36:55;;;;;;;;;38.00;35.00;21.70;48.20;;;;;;5088990;28;8791;-68
2021/09/07 06:39:22;;;;;;;;;38.00;35.00;21.60;48.00;;;;;;5092296;28;8787;-70
2021/09/07 06:41:47;;;;;;;;;36.67;35.67;21.70;47.80;;;;;;5094701;28;8744;-70
2021/09/07 06:44:13;;;;;;;;;33.67;33.33;21.70;47.80;;;;;;5082195;28;8950;-74
2021/09/07 06:46:39;;;;;;;;;35.00;33.67;21.80;47.80;;;;;;5074291;28;8786;-75
2021/09/07 06:49:05;;;;;;;;;32.33;31.33;22.00;47.50;;;;;;5074698;28;8770;-78
2021/09/07 06:51:31;;;;;;;;;33.00;31.00;22.10;47.60;;;;;;5074129;28;8778;-75
2021/09/07 06:53:57;;;;;;;;;33.00;33.00;22.10;47.40;;;;;;5074325;28;8827;-76
2021/09/07 06:56:23;;;;;;;;;31.67;31.67;22.20;47.00;;;;;;5073926;28;8870;-75
2021/09/07 06:58:48;;;;;;;;;36.00;34.33;22.30;46.60;;;;;;5074221;28;8778;-75
2021/09/07 07:01:14;;;;;;;;;50.67;43.33;22.40;46.30;;;;;;5074302;28;8762;-74
2021/09/07 07:03:40;;;;;;;;;462.50;438.50;22.40;46.30;;;;;;5074079;28;8773;-77
2021/09/07 07:06:06;;;;;;;;;617.80;575.80;22.50;46.20;;;;;;5055931;28;8906;-74
2021/09/07 07:08:31;;;;;;;;;71.25;59.50;22.50;46.90;;;;;;5074457;28;8778;-74
2021/09/07 07:10:57;;;;;;;;;31.67;30.67;22.50;45.20;;;;;;5056595;28;8758;-74
2021/09/07 07:13:23;;;;;;;;;30.67;30.67;22.70;45.20;;;;;;5074296;28;8784;-74
2021/09/07 07:15:49;;;;;;;;;28.67;28.67;22.50;44.70;;;;;;5073950;28;8794;-74
2021/09/07 07:18:15;;;;;;;;;28.00;28.00;22.50;44.90;;;;;;5074308;28;8785;-73
2021/09/07 07:20:41;;;;;;;;;35.67;33.67;22.60;45.00;;;;;;5074136;28;8848;-74
2021/09/07 07:23:07;;;;;;;;;27.00;27.00;22.70;44.90;;;;;;5074313;28;8783;-73
2021/09/07 07:25:33;;;;;;;;;28.33;28.33;22.90;44.40;;;;;;5074288;28;8814;-74
2021/09/07 07:27:58;;;;;;;;;26.67;26.67;22.90;43.70;;;;;;5073960;28;8830;-70
2021/09/07 07:30:26;;;;;;;;;29.33;29.33;22.90;43.90;;;;;;5074127;28;9517;-68
2021/09/07 07:32:52;;;;;;;;;29.33;29.33;23.00;44.50;;;;;;5073843;28;8754;-70
2021/09/07 07:35:18;;;;;;;;;25.00;25.00;23.10;44.30;;;;;;5073678;28;8898;-73
2021/09/07 07:37:44;;;;;;;;;23.33;23.33;23.20;43.90;;;;;;5073827;28;8754;-73
2021/09/07 07:40:10;;;;;;;;;25.67;25.67;23.30;43.50;;;;;;5073988;28;8770;-73
2021/09/07 07:42:36;;;;;;;;;28.33;25.00;23.40;43.90;;;;;;5079558;28;8780;-73
2021/09/07 07:45:02;;;;;;;;;29.00;29.00;23.30;42.70;;;;;;5094239;28;8799;-72
2021/09/07 07:47:28;;;;;;;;;26.00;26.00;23.40;43.10;;;;;;5094060;28;8775;-73
2021/09/07 07:49:54;;;;;;;;;80.25;73.00;23.50;42.70;;;;;;5094151;28;9242;-71
2021/09/07 07:52:19;;;;;;;;;485.80;451.40;23.70;42.70;;;;;;5093175;28;8764;-72
2021/09/07 07:54:49;;;;;;;;;58.25;48.75;23.70;42.60;;;;;;5090084;28;9527;-75
2021/09/07 07:57:15;;;;;;;;;24.00;24.00;23.70;42.60;;;;;;5056096;28;8829;-73
2021/09/07 07:59:41;;;;;;;;;25.00;25.00;23.70;42.20;;;;;;5074295;28;8778;-74
2021/09/07 08:02:07;;;;;;;;;20.33;20.33;23.90;42.40;;;;;;5073432;28;8843;-75
2021/09/07 08:04:32;;;;;;;;;18.67;18.67;23.90;41.70;;;;;;5076908;28;8771;-74
2021/09/07 08:06:58;;;;;;;;;23.00;23.00;24.00;41.70;;;;;;5077425;28;8843;-74
2021/09/07 08:09:25;;;;;;;;;21.00;21.00;24.10;41.30;;;;;;5059393;28;8785;-74
2021/09/07 08:11:51;;;;;;;;;25.33;25.33;24.20;40.90;;;;;;5076968;28;8846;-74
2021/09/07 08:14:16;;;;;;;;;21.00;21.00;24.20;41.00;;;;;;5076483;28;8910;-73
2021/09/07 08:16:42;;;;;;;;;29.33;29.33;24.30;40.50;;;;;;5076968;28;8814;-73
2021/09/07 08:19:08;;;;;;;;;24.00;24.00;24.40;40.60;;;;;;5076743;28;8778;-73
2021/09/07 08:21:34;;;;;;;;;26.33;26.33;24.40;39.20;;;;;;5059117;28;8742;-70
2021/09/07 08:24:00;;;;;;;;;359.50;344.75;24.50;39.90;;;;;;5076339;28;8794;-65
2021/09/07 08:26:26;;;;;;;;;681.20;595.60;24.50;39.00;;;;;;5076580;28;8806;-64
2021/09/07 08:28:51;;;;;;;;;20.00;20.00;24.60;39.10;;;;;;5076736;28;8781;-65
2021/09/07 08:31:17;;;;;;;;;18.33;18.33;24.60;38.80;;;;;;5076969;28;8785;-65
2021/09/07 08:33:43;;;;;;;;;17.67;17.67;24.60;39.20;;;;;;5076762;28;8762;-65
2021/09/07 08:36:09;;;;;;;;;23.33;22.33;24.70;39.30;;;;;;5076480;28;8789;-69
2021/09/07 08:38:35;;;;;;;;;20.67;20.00;24.80;39.50;;;;;;5076390;28;8777;-68
2021/09/07 08:41:01;;;;;;;;;23.00;23.00;25.00;39.80;;;;;;5076672;28;8758;-65
2021/09/07 08:43:27;;;;;;;;;19.00;19.00;25.00;39.30;;;;;;5076878;28;8766;-65
2021/09/07 08:45:57;;;;;;;;;21.33;21.33;25.10;38.90;;;;;;5076816;28;8789;-65
2021/09/07 08:48:25;;;;;;;;;21.33;21.33;25.20;38.70;;;;;;5076290;28;8774;-64
2021/09/07 08:50:55;;;;;;;;;21.00;19.67;25.30;38.70;;;;;;5076183;28;11455;-64
2021/09/07 08:53:22;;;;;;;;;20.33;20.33;25.40;38.80;;;;;;5076228;28;11448;-64
2021/09/07 08:55:49;;;;;;;;;19.33;19.33;25.60;38.60;;;;;;5075964;28;8836;-65
2021/09/07 08:58:15;;;;;;;;;21.00;21.00;25.60;37.60;;;;;;5076071;28;11467;-65
2021/09/07 09:00:48;;;;;;;;;19.33;19.33;25.70;37.60;;;;;;5076073;28;11441;-64
2021/09/07 09:03:13;;;;;;;;;18.00;18.00;25.90;37.30;;;;;;5076198;28;11462;-65
2021/09/07 09:05:44;;;;;;;;;15.00;15.00;25.90;36.90;;;;;;5076219;28;11472;-65
2021/09/07 09:08:15;;;;;;;;;18.67;18.67;26.00;36.80;;;;;;5076223;28;8777;-65
2021/09/07 09:10:45;;;;;;;;;19.33;19.33;26.00;36.20;;;;;;5076072;28;12145;-65
2021/09/07 09:13:20;;;;;;;;;21.33;21.33;26.10;36.40;;;;;;5076006;28;11437;-65
2021/09/07 09:16:06;;;;;;;;;20.33;20.33;26.30;36.50;;;;;;5073985;28;8870;-64
2021/09/07 09:18:48;;;;;;;;;475.00;453.60;26.30;35.90;;;;;;5075760;28;11480;-65
2021/09/07 09:21:47;;;;;;;;;85.00;77.25;26.30;35.00;;;;;;5075770;28;8766;-65
2021/09/07 09:24:15;;;;;;;;;16.00;16.00;26.50;35.70;;;;;;5075675;28;8773;-65
2021/09/07 09:26:53;;;;;;;;;13.33;13.33;26.60;35.90;;;;;;5075632;28;11482;-65
2021/09/07 09:29:24;;;;;;;;;19.00;19.00;26.70;35.80;;;;;;5093720;28;12192;-65
2021/09/07 09:31:55;;;;;;;;;16.67;16.67;26.90;35.30;;;;;;5093591;28;11472;-64
2021/09/07 09:34:20;;;;;;;;;17.67;17.67;27.00;34.20;;;;;;5095622;28;12085;-63
2021/09/07 09:37:08;;;;;;;;;15.33;15.33;27.10;33.90;;;;;;5095738;28;11464;-64
2021/09/07 09:39:39;;;;;;;;;14.00;14.00;27.20;33.90;;;;;;5082210;28;8768;-64
2021/09/07 09:42:06;;;;;;;;;9.00;9.00;27.30;33.10;;;;;;5095553;28;11423;-65
2021/09/07 09:44:32;;;;;;;;;16.00;16.00;27.30;32.50;;;;;;5095793;28;11386;-65
2021/09/07 09:46:58;;;;;;;;;16.33;16.33;27.50;34.20;;;;;;5095401;28;11494;-63
2021/09/07 09:49:28;;;;;;;;;15.33;15.33;27.60;32.40;;;;;;5095583;28;11420;-65
2021/09/07 09:52:05;;;;;;;;;16.33;16.33;27.70;31.80;;;;;;5095278;28;11421;-64
2021/09/07 09:54:32;;;;;;;;;17.25;17.25;28.00;31.30;;;;;;5095072;28;11425;-65
2021/09/07 09:57:00;;;;;;;;;280.75;261.00;28.20;31.30;;;;;;5095262;28;11480;-65
2021/09/07 09:59:29;;;;;;;;;325.00;315.25;28.30;30.70;;;;;;5095064;28;8791;-66
2021/09/07 10:01:57;;;;;;;;;29.33;29.33;28.50;30.00;;;;;;5095429;28;11268;-65
2021/09/07 10:04:23;;;;;;;;;17.00;17.00;28.70;30.40;;;;;;5095303;28;8779;-65
2021/09/07 10:06:51;;;;;;;;;15.00;15.00;28.90;30.60;;;;;;5095237;28;12068;-64
2021/09/07 10:09:23;;;;;;;;;16.50;16.50;29.10;29.10;;;;;;5094351;28;11433;-66
2021/09/07 10:12:24;;;;;;;;;11.75;11.75;29.30;28.70;;;;;;5095451;28;11459;-64
2021/09/07 10:15:21;;;;;;;;;15.25;15.25;29.20;28.10;;;;;;5080448;28;12157;-66
2021/09/07 10:17:46;;;;;;;;;15.00;13.75;29.50;28.10;;;;;;5093355;28;11502;-65
2021/09/07 10:25:52;;;;;;;;;13.50;13.50;29.70;27.10;;;;;;5094479;28;12118;-66
2021/09/07 10:28:37;;;;;;;;;15.75;15.75;30.10;27.30;;;;;;5094892;28;11409;-66
2021/09/07 10:31:12;;;;;;;;;15.00;15.00;30.20;26.40;;;;;;5094646;28;11456;-66
2021/09/07 10:33:44;;;;;;;;;14.25;14.25;30.30;26.70;;;;;;5076689;28;11434;-66
2021/09/07 10:36:11;;;;;;;;;14.75;14.75;30.20;26.00;;;;;;5094427;28;11476;-66
2021/09/07 10:38:42;;;;;;;;;11.25;11.25;30.70;27.20;;;;;;5093960;28;11425;-66
2021/09/07 10:41:09;;;;;;;;;13.50;13.50;31.00;26.10;;;;;;5094419;28;11433;-65
2021/09/07 10:43:53;;;;;;;;;14.50;14.50;31.00;26.20;;;;;;5094760;28;11418;-66
2021/09/07 10:46:39;;;;;;;;;13.50;13.50;31.30;25.40;;;;;;5094790;28;11428;-66
2021/09/07 10:49:28;;;;;;;;;15.25;15.25;31.50;25.60;;;;;;5094505;28;11461;-64
2021/09/07 10:52:18;;;;;;;;;14.25;14.25;31.50;25.20;;;;;;5093947;28;11545;-66
2021/09/07 10:54:53;;;;;;;;;12.75;12.75;31.70;25.50;;;;;;5094121;28;11553;-66
2021/09/07 10:57:38;;;;;;;;;14.00;14.00;32.10;24.90;;;;;;5094673;28;11497;-66
2021/09/07 11:00:16;;;;;;;;;13.75;13.75;32.20;24.50;;;;;;5094319;28;11565;-66
2021/09/07 11:02:48;;;;;;;;;13.00;13.00;32.20;24.60;;;;;;5094275;28;11511;-66
2021/09/07 11:05:23;;;;;;;;;13.75;13.75;32.20;24.20;;;;;;5094245;28;11510;-66
2021/09/07 11:07:51;;;;;;;;;14.25;13.00;32.60;23.90;;;;;;5093405;28;11413;-66
2021/09/07 11:10:16;;;;;;;;;13.75;13.75;32.70;23.70;;;;;;5093986;28;11398;-65
2021/09/07 11:13:03;;;;;;;;;10.75;10.75;32.80;23.40;;;;;;5094327;28;11523;-66
2021/09/07 11:15:38;;;;;;;;;12.75;12.75;32.70;23.40;;;;;;5094101;28;8807;-66
2021/09/07 11:18:06;;;;;;;;;214.20;211.80;32.90;23.70;;;;;;5094141;28;11450;-67
2021/09/07 11:20:37;;;;;;;;;297.00;285.00;32.50;22.80;;;;;;5093921;28;8807;-67
2021/09/07 11:23:13;;;;;;;;;7.75;7.75;32.50;22.90;;;;;;5093620;28;8889;-66
2021/09/07 11:25:40;;;;;;;;;13.25;13.25;32.70;23.40;;;;;;5094313;28;11407;-68
2021/09/07 11:28:09;;;;;;;;;14.00;14.00;32.80;22.80;;;;;;5094055;28;11405;-66
2021/09/07 11:30:48;;;;;;;;;11.00;11.00;32.90;23.20;;;;;;5093983;28;11423;-69
2021/09/07 11:33:26;;;;;;;;;12.50;12.50;32.70;22.70;;;;;;5094016;28;11426;-65
2021/09/07 11:35:52;;;;;;;;;13.00;13.00;32.90;22.90;;;;;;5094156;28;11492;-66
2021/09/07 11:38:22;;;;;;;;;12.00;12.00;33.00;22.60;;;;;;5095265;28;11422;-65
2021/09/07 11:40:54;;;;;;;;;13.25;13.25;33.10;22.70;;;;;;5098058;28;8874;-65
2021/09/07 11:43:39;;;;;;;;;13.50;13.50;33.40;22.60;;;;;;5097874;28;11510;-66
2021/09/07 11:46:21;;;;;;;;;12.00;12.00;33.60;22.90;;;;;;5097717;28;11413;-64
2021/09/07 11:48:49;;;;;;;;;62.50;53.75;33.70;21.90;;;;;;5097667;28;11533;-65
2021/09/07 11:51:24;;;;;;;;;334.67;320.83;33.80;21.50;;;;;;5096949;28;10780;-66
2021/09/07 11:53:59;;;;;;;;;15.50;15.50;33.80;22.30;;;;;;5097623;28;8830;-66
2021/09/07 11:56:28;;;;;;;;;12.50;12.50;34.10;22.40;;;;;;5097310;28;11614;-65
2021/09/07 11:59:08;;;;;;;;;11.00;11.00;34.20;21.90;;;;;;5097592;28;11433;-65
2021/09/07 12:01:38;;;;;;;;;10.25;10.25;34.70;21.20;;;;;;5097501;28;11573;-66
2021/09/07 12:04:04;;;;;;;;;12.00;12.00;34.80;21.00;;;;;;5097707;28;11419;-65
2021/09/07 12:06:37;;;;;;;;;11.75;11.75;34.80;21.00;;;;;;5096905;28;12027;-65
2021/09/07 12:09:16;;;;;;;;;12.50;12.50;34.80;20.90;;;;;;5097405;28;11469;-65
2021/09/07 12:11:45;;;;;;;;;12.25;12.25;35.10;21.00;;;;;;5097411;28;11441;-66
2021/09/07 12:14:21;;;;;;;;;12.25;12.25;35.00;20.30;;;;;;5097225;28;11497;-66
2021/09/07 12:16:50;;;;;;;;;10.75;10.75;35.00;21.00;;;;;;5097181;28;11423;-65
2021/09/07 12:19:28;;;;;;;;;9.50;9.50;35.00;21.10;;;;;;5097233;28;11416;-65
2021/09/07 12:22:21;;;;;;;;;12.75;12.75;35.00;20.90;;;;;;5097022;28;11418;-66
2021/09/07 12:25:00;;;;;;;;;12.50;12.50;35.00;20.90;;;;;;5097285;28;11457;-70
2021/09/07 12:27:29;;;;;;;;;12.50;12.50;35.20;20.80;;;;;;5097082;28;11490;-71
2021/09/07 12:30:16;;;;;;;;;10.25;10.25;35.30;20.80;;;;;;5097271;28;12267;-67
2021/09/07 12:32:50;;;;;;;;;13.75;13.75;35.80;19.80;;;;;;5097214;28;11373;-70
2021/09/07 12:35:34;;;;;;;;;12.25;12.25;39.30;18.40;;;;;;5096916;28;11424;-72
2021/09/07 12:38:08;;;;;;;;;13.00;13.00;44.80;15.50;;;;;;5096781;28;11525;-73
2021/09/07 12:40:36;;;;;;;;;9.50;9.50;47.30;14.30;;;;;;5096901;28;11438;-72
2021/09/07 12:43:10;;;;;;;;;12.75;12.75;49.00;13.40;;;;;;5097014;28;11433;-64
2021/09/07 12:45:36;;;;;;;;;11.75;11.75;50.00;12.40;;;;;;5096878;28;11450;-66